Data for 04/29/2005

Time Sea-Level Adjusted Pressure Absolute Pressure Temperature Relative Humidity Dew Point   
(mb) (inHg) (mb) (inHg) (C) (F) (%) (C) (F)
00:05 1019 30.09 848 25.04 -4.6 23.7 67 -9.9 14.3
00:10 1019 30.09 848 25.04 -4.5 23.8 66 -9.9 14.2
00:15 1019 30.09 848 25.04 -4.6 23.7 67 -9.8 14.4
00:20 1019 30.09 848 25.04 -4.6 23.7 68 -9.7 14.5
00:25 1019 30.09 848 25.04 -4.5 23.9 67 -9.8 14.4
00:30 1019 30.09 848 25.04 -4.5 23.9 66 -9.8 14.3
00:35 1019 30.09 848 25.04 -4.4 24.1 66 -9.8 14.3
00:40 1019 30.09 848 25.04 -4.4 24 66 -9.8 14.3
00:45 1019 30.09 848 25.04 -4.5 24 62 -10.6 12.9
00:50 1019 30.09 848 25.04 -4.3 24.2 61 -10.8 12.5
00:55 1019 30.09 848 25.04 -4.4 24.1 61 -10.9 12.3
01:00 1019 30.09 848 25.04 -4.5 24 59 -11.3 11.7
01:05 1019 30.09 848 25.04 -4.5 23.9 60 -11 12.1
01:10 1019 30.09 848 25.04 -4.7 23.5 60 -11.4 11.4
01:15 1019 30.09 848 25.04 -4.7 23.5 61 -11 12.1
01:20 1019 30.09 848 25.04 -4.9 23.2 63 -10.9 12.5
01:25 1019 30.09 848 25.04 -4.9 23.2 64 -10.7 12.8
01:30 1019 30.09 848 25.04 -4.9 23.2 65 -10.5 13.1
01:35 1019 30.09 848 25.04 -5.2 22.7 69 -10.1 13.9
01:40 1019 30.09 848 25.04 -5.4 22.2 71 -10 14.1
01:45 1019 30.09 848 25.04 -5.6 21.9 72 -9.9 14.2
01:50 1019 30.09 848 25.04 -5.6 21.9 73 -9.7 14.5
01:55 1019 30.09 848 25.04 -5.7 21.7 74 -9.6 14.7
02:00 1019 30.09 848 25.04 -5.9 21.5 74 -9.7 14.5
02:05 1019 30.09 848 25.04 -6 21.3 73 -10 14
02:10 1019 30.09 848 25.04 -5.9 21.3 72 -10.2 13.7
02:15 1019 30.09 848 25.04 -5.9 21.4 73 -10 14
02:20 1019 30.09 848 25.04 -6 21.2 75 -9.8 14.4
02:25 1019 30.09 848 25.04 -6.1 21 75 -9.8 14.4
02:30 1019 30.09 848 25.04 -6 21.1 74 -10 14
02:35 1019 30.09 848 25.04 -6.1 21.1 74 -10 14
02:40 1019 30.09 848 25.04 -6.2 20.8 76 -9.8 14.4
02:45 1019 30.09 848 25.04 -6.3 20.6 75 -10.1 13.8
02:50 1019 30.09 848 25.04 -6.1 21 72 -10.3 13.4
02:55 1019 30.09 848 25.04 -6 21.2 71 -10.4 13.3
03:00 1019 30.09 848 25.04 -5.9 21.3 70 -10.5 13.2
03:05 1019 30.09 848 25.04 -6 21.1 72 -10.3 13.5
03:10 1019 30.09 848 25.04 -6.4 20.5 75 -10.2 13.7
03:15 1019 30.09 848 25.04 -6.5 20.3 75 -10.3 13.4
03:20 1019 30.09 848 25.04 -6.6 20.1 75 -10.4 13.3
03:25 1019 30.09 848 25.04 -6.7 19.9 75 -10.4 13.2
03:30 1019 30.09 848 25.04 -6.7 19.9 74 -10.5 13
03:35 1019 30.09 848 25.04 -6.6 20.2 73 -10.6 12.8
03:40 1019 30.09 848 25.04 -6.6 20.2 72 -10.8 12.6
03:45 1019 30.09 848 25.04 -6.6 20.2 72 -10.9 12.4
03:50 1019 30.09 848 25.04 -6.6 20 70 -11.3 11.7
03:55 1019 30.09 849 25.07 -6.8 19.8 66 -12 10.4
04:00 1019 30.09 848 25.04 -6.8 19.8 66 -12.2 10.1
04:05 1019 30.09 848 25.04 -6.8 19.7 66 -12.2 10
04:10 1019 30.09 848 25.04 -6.8 19.7 66 -12.2 10
04:15 1019 30.09 849 25.07 -6.9 19.6 66 -12.1 10.1
04:20 1019 30.09 848 25.04 -7 19.3 69 -11.8 10.7
04:25 1019 30.09 849 25.07 -7.4 18.7 71 -11.8 10.8
04:30 1019 30.09 849 25.07 -7.3 18.8 73 -11.4 11.4
04:35 1019 30.09 849 25.07 -7.5 18.6 71 -11.8 10.8
04:40 1019 30.09 849 25.07 -7.4 18.7 71 -11.7 11
04:45 1019 30.09 849 25.07 -7.3 18.8 70 -11.8 10.7
04:50 1019 30.09 849 25.07 -7.3 18.8 71 -11.8 10.8
04:55 1019 30.09 849 25.07 -7.4 18.8 71 -11.8 10.7
05:00 1020 30.12 849 25.07 -7.5 18.6 72 -11.7 11
05:05 1020 30.12 849 25.07 -7.5 18.5 72 -11.7 11
05:10 1020 30.12 849 25.07 -7.7 18.2 73 -11.8 10.7
05:15 1020 30.12 849 25.07 -7.8 18 73 -11.8 10.7
05:20 1020 30.12 849 25.07 -7.9 17.9 74 -11.8 10.8
05:25 1020 30.12 849 25.07 -8 17.7 75 -11.7 10.9
05:30 1020 30.12 849 25.07 -8 17.5 74 -11.9 10.7
05:35 1020 30.12 849 25.07 -8 17.7 75 -11.7 11
05:40 1020 30.12 849 25.07 -8 17.7 74 -11.7 10.9
05:45 1020 30.12 849 25.07 -7.9 17.8 74 -11.8 10.7
05:50 1020 30.12 849 25.07 -8 17.5 74 -11.9 10.6
05:55 1020 30.12 849 25.07 -8.1 17.5 75 -11.8 10.7
06:00 1020 30.12 849 25.07 -8.1 17.4 73 -12.1 10.3
06:05 1020 30.12 849 25.07 -8.1 17.5 73 -12.2 10.1
06:10 1020 30.12 849 25.07 -8.1 17.3 72 -12.3 9.9
06:15 1020 30.12 849 25.07 -8 17.6 72 -12.2 10
06:20 1020 30.12 849 25.07 -7.9 17.8 71 -12.2 10.1
06:25 1020 30.12 849 25.07 -8 17.7 73 -11.9 10.5
06:30 1020 30.12 849 25.07 -8.1 17.5 72 -12.2 10
06:35 1020 30.12 849 25.07 -8 17.7 70 -12.4 9.6
06:40 1020 30.12 849 25.07 -7.7 18.2 69 -12.5 9.6
06:45 1020 30.12 849 25.07 -7.5 18.5 69 -12.2 10
06:50 1020 30.12 850 25.1 -7.6 18.3 70 -12.1 10.1
06:55 1021 30.15 850 25.1 -7.8 17.9 71 -12.2 10
07:00 1021 30.15 850 25.1 -8 17.7 72 -12.1 10.2
07:05 1021 30.15 850 25.1 -7.9 17.8 73 -12 10.5
07:10 1021 30.15 850 25.1 -7.5 18.5 69 -12.2 10
07:15 1021 30.15 850 25.1 -7 19.3 67 -12.3 9.9
07:20 1021 30.15 850 25.1 -6.6 20.1 65 -12.1 10.3
07:25 1021 30.15 850 25.1 -6.5 20.4 67 -11.6 11.2
07:30 1021 30.15 850 25.1 -6.3 20.7 66 -11.6 11.2
07:35 1021 30.15 850 25.1 -6.4 20.5 67 -11.5 11.2
07:40 1021 30.15 850 25.1 -6.6 20 69 -11.4 11.4
07:45 1021 30.15 850 25.1 -6.3 20.7 66 -11.6 11.2
07:50 1021 30.15 850 25.1 -5.9 21.5 65 -11.4 11.4
07:55 1021 30.15 850 25.1 -5.5 22.1 63 -11.4 11.5
08:00 1021 30.15 850 25.1 -5.4 22.3 63 -11.5 11.4
08:05 1021 30.15 850 25.1 -5.6 21.9 63 -11.6 11.1
08:10 1021 30.15 850 25.1 -5.5 22 63 -11.5 11.2
08:15 1021 30.15 850 25.1 -5.6 22 64 -11.3 11.7
08:20 1021 30.15 850 25.1 -4.9 23.3 62 -11.1 12.1
08:25 1021 30.15 850 25.1 -4.5 24 60 -11.1 12
08:30 1021 30.15 850 25.1 -3.9 24.9 60 -10.7 12.8
08:35 1021 30.15 851 25.13 -3.8 25.2 58 -10.9 12.4
08:40 1021 30.15 851 25.13 -3.8 25.1 60 -10.6 12.9
08:45 1021 30.15 851 25.13 -4.1 24.5 57 -11.5 11.2
08:50 1021 30.15 851 25.13 -4.2 24.4 57 -11.6 11.2
08:55 1021 30.15 851 25.13 -3.6 25.4 54 -11.8 10.8
09:00 1022 30.18 851 25.13 -3.3 26 55 -11.2 11.8
09:05 1022 30.18 851 25.13 -3 26.6 52 -11.6 11.2
09:10 1022 30.18 851 25.13 -3 26.6 54 -11.1 12
09:15 1022 30.18 851 25.13 -3.1 26.3 54 -11.3 11.7
09:20 1022 30.18 851 25.13 -3.2 26.2 53 -11.5 11.3
09:25 1022 30.18 851 25.13 -3.2 26.3 56 -10.8 12.6
09:30 1022 30.18 851 25.13 -2.4 27.7 50 -11.5 11.3
09:35 1022 30.18 851 25.13 -2.1 28.2 51 -10.8 12.5
09:40 1022 30.18 851 25.13 -1.8 28.8 53 -10.2 13.6
09:45 1021 30.15 851 25.13 -1.5 29.3 49 -10.8 12.6
09:50 1021 30.15 851 25.13 -2.1 28.2 53 -10.4 13.2
09:55 1021 30.15 851 25.13 -2 28.3 50 -11.2 11.9
10:00 1021 30.15 851 25.13 -1.6 29.1 49 -11.1 12
10:05 1021 30.15 851 25.13 -1.9 28.5 52 -10.6 12.9
10:10 1021 30.15 851 25.13 -2.5 27.5 52 -11.1 11.9
10:15 1021 30.15 851 25.13 -1.7 28.9 48 -11.4 11.4
10:20 1021 30.15 851 25.13 -1.1 30 47 -11.1 12
10:25 1021 30.15 851 25.13 -0.7 30.7 45 -11.2 11.9
10:30 1021 30.15 851 25.13 -1.8 28.8 50 -10.9 12.3
10:35 1021 30.15 850 25.1 -2.5 27.6 52 -10.9 12.4
10:40 1021 30.15 850 25.1 -1.2 29.9 46 -11.5 11.3
10:45 1021 30.15 850 25.1 -0.5 31.1 44 -11.4 11.6
10:50 1021 30.15 850 25.1 -0.3 31.5 42 -11.6 11.1
10:55 1021 30.15 850 25.1 -1 30.3 50 -10.1 13.9
11:00 1021 30.15 850 25.1 -1.9 28.6 52 -10.5 13.1
11:05 1021 30.15 850 25.1 -1.9 28.7 47 -11.8 10.8
11:10 1021 30.15 850 25.1 -1.4 29.5 49 -10.8 12.6
11:15 1021 30.15 850 25.1 -1.4 29.5 47 -11.3 11.7
11:20 1021 30.15 850 25.1 -1.3 29.7 45 -11.8 10.7
11:25 1021 30.15 850 25.1 -0.8 30.6 45 -11.3 11.7
11:30 1021 30.15 850 25.1 0.3 32.5 46 -10.1 13.8
11:35 1021 30.15 850 25.1 0.8 33.5 45 -10 14.1
11:40 1021 30.15 850 25.1 -0.1 31.7 46 -10.4 13.2
11:45 1021 30.15 850 25.1 -0.4 31.3 47 -10.3 13.4
11:50 1021 30.15 850 25.1 -1.5 29.2 51 -10.4 13.3
11:55 1021 30.15 850 25.1 -1.1 30 48 -10.9 12.4
12:00 1021 30.15 850 25.1 0 32 44 -10.8 12.5
12:05 1021 30.15 850 25.1 0.8 33.4 43 -10.6 13
12:10 1021 30.15 850 25.1 0.7 33.3 41 -11.1 12
12:15 1021 30.15 850 25.1 1 33.9 37 -12.1 10.2
12:20 1021 30.15 850 25.1 -0 32 43 -11 12.1
12:25 1021 30.15 850 25.1 1 33.8 42 -10.6 12.9
12:30 1021 30.15 850 25.1 0.8 33.4 46 -9.5 14.8
12:35 1020 30.12 850 25.1 0.5 32.9 47 -9.7 14.6
12:40 1020 30.12 850 25.1 -0.2 31.7 43 -11.2 11.8
12:45 1020 30.12 850 25.1 -0.1 31.8 42 -11.6 11.2
12:50 1020 30.12 849 25.07 0.3 32.5 43 -10.9 12.3
12:55 1020 30.12 849 25.07 1.1 33.9 40 -10.9 12.3
13:00 1020 30.12 849 25.07 2.1 35.8 39 -10.4 13.3
13:05 1020 30.12 849 25.07 2.3 36.2 35 -11.5 11.4
13:10 1020 30.12 849 25.07 2.5 36.5 35 -11.4 11.4
13:15 1020 30.12 849 25.07 1.7 35.1 38 -11 12.2
13:20 1020 30.12 849 25.07 1.9 35.4 41 -9.9 14.2
13:25 1020 30.12 849 25.07 2.5 36.5 38 -10.6 12.9
13:30 1020 30.12 849 25.07 3.2 37.8 32 -12 10.3
13:35 1020 30.12 849 25.07 2.2 36 40 -10 13.9
13:40 1020 30.12 849 25.07 1.8 35.2 38 -11.2 11.9
13:45 1020 30.12 849 25.07 2.6 36.7 33 -12 10.4
13:50 1020 30.12 849 25.07 2.7 36.8 35 -11.4 11.4
13:55 1020 30.12 849 25.07 3.3 37.9 30 -12.7 9.1
14:00 1020 30.12 849 25.07 3 37.4 31 -12.5 9.5
14:05 1020 30.12 849 25.07 2.4 36.3 35 -11.6 11.1
14:10 1020 30.12 849 25.07 3.2 37.8 37 -10.1 13.8
14:15 1020 30.12 849 25.07 3.4 38.2 33 -11.4 11.5
14:20 1020 30.12 849 25.07 3.5 38.3 31 -12.3 9.9
14:25 1019 30.09 849 25.07 3.2 37.7 34 -11.4 11.4
14:30 1019 30.09 849 25.07 3.8 38.8 31 -12.1 10.3
14:35 1020 30.12 849 25.07 4.1 39.4 30 -11.9 10.6
14:40 1019 30.09 849 25.07 4.4 39.8 32 -10.9 12.4
14:45 1019 30.09 849 25.07 4.5 40.1 29 -12.2 10
14:50 1019 30.09 849 25.07 4.8 40.7 30 -11.5 11.3
14:55 1019 30.09 849 25.07 4.7 40.5 30 -11.3 11.6
15:00 1019 30.09 849 25.07 4.6 40.2 29 -12.1 10.2
15:05 1019 30.09 849 25.07 5 40.9 27 -12.4 9.7
15:10 1019 30.09 848 25.04 4.5 40.1 29 -12.2 10
15:15 1019 30.09 848 25.04 4.2 39.5 28 -12.9 8.7
15:20 1019 30.09 848 25.04 4.6 40.3 26 -13.3 8
15:25 1019 30.09 848 25.04 5.3 41.6 28 -11.8 10.8
15:30 1019 30.09 848 25.04 5.6 42.1 27 -11.9 10.5
15:35 1019 30.09 848 25.04 5.5 41.8 27 -11.9 10.5
15:40 1019 30.09 848 25.04 5.2 41.3 28 -12 10.4
15:45 1019 30.09 848 25.04 4.9 40.8 28 -12.1 10.2
15:50 1019 30.09 848 25.04 4.4 39.9 28 -12.5 9.5
15:55 1019 30.09 848 25.04 4.5 40.1 29 -12 10.4
16:00 1019 30.09 848 25.04 5.1 41.2 27 -12.3 9.9
16:05 1019 30.09 848 25.04 5.8 42.4 25 -12.6 9.3
16:10 1019 30.09 848 25.04 5.1 41.3 27 -12.4 9.7
16:15 1019 30.09 848 25.04 4.8 40.7 29 -11.9 10.6
16:20 1019 30.09 848 25.04 5.4 41.8 27 -12.4 9.7
16:25 1018 30.06 848 25.04 5.6 42 28 -11.6 11.2
16:30 1018 30.06 848 25.04 5.6 42.1 24 -13.3 8.1
16:35 1018 30.06 848 25.04 5.7 42.2 28 -11.6 11.2
16:40 1018 30.06 848 25.04 5.4 41.7 28 -11.7 11
16:45 1018 30.06 848 25.04 5.2 41.4 26 -12.8 8.9
16:50 1018 30.06 848 25.04 6.2 43.1 27 -11.5 11.3
16:55 1018 30.06 848 25.04 5.8 42.5 27 -12 10.5
17:00 1018 30.06 847 25.01 5.8 42.4 26 -12.2 10
17:05 1018 30.06 847 25.01 6.5 43.8 24 -12.5 9.5
17:10 1018 30.06 847 25.01 6.5 43.7 26 -11.7 11
17:15 1018 30.06 847 25.01 6.8 44.2 26 -11.5 11.4
17:20 1018 30.06 847 25.01 6.8 44.2 24 -12.5 9.6
17:25 1018 30.06 847 25.01 6.7 44.1 23 -12.9 8.8
17:30 1018 30.06 847 25.01 6.6 43.9 24 -12.6 9.3
17:35 1018 30.06 847 25.01 6.4 43.6 26 -11.9 10.6
17:40 1018 30.06 847 25.01 6.8 44.2 25 -12.1 10.2
17:45 1018 30.06 847 25.01 6.4 43.6 26 -12 10.5
17:50 1018 30.06 847 25.01 6.2 43.2 25 -12.4 9.7
17:55 1018 30.06 847 25.01 6.3 43.4 25 -12.1 10.2
18:00 1018 30.06 847 25.01 7.1 44.7 23 -12.7 9.2
18:05 1018 30.06 847 25.01 7 44.7 25 -11.9 10.6
18:10 1018 30.06 847 25.01 6.6 43.9 25 -12 10.4
18:15 1018 30.06 847 25.01 6.6 44 24 -12.5 9.5
18:20 1018 30.06 847 25.01 6.8 44.2 25 -12.1 10.1
18:25 1018 30.06 847 25.01 6.1 43 26 -12 10.4
18:30 1018 30.06 847 25.01 5.6 42.1 27 -12.1 10.2
18:35 1018 30.06 847 25.01 5.4 41.8 27 -12.1 10.3
18:40 1018 30.06 847 25.01 5.9 42.7 27 -11.8 10.8
18:45 1018 30.06 847 25.01 6.4 43.4 27 -11.3 11.6
18:50 1018 30.06 847 25.01 5.8 42.4 27 -11.7 10.9
18:55 1018 30.06 847 25.01 5.5 41.9 27 -12.2 10.1
19:00 1018 30.06 847 25.01 5.6 42 26 -12.4 9.7
19:05 1018 30.06 847 25.01 5.6 42.1 27 -11.8 10.7
19:10 1018 30.06 847 25.01 5.8 42.5 27 -12 10.4
19:15 1018 30.06 847 25.01 5.7 42.2 27 -12.1 10.2
19:20 1018 30.06 847 25.01 5.2 41.4 27 -12.2 10.1
19:25 1018 30.06 847 25.01 5.1 41.2 28 -12.1 10.2
19:30 1018 30.06 847 25.01 5.2 41.4 27 -12.3 9.9
19:35 1018 30.06 847 25.01 5.2 41.4 28 -12.1 10.3
19:40 1018 30.06 847 25.01 5.2 41.3 28 -11.9 10.6
19:45 1018 30.06 847 25.01 5.2 41.3 28 -11.9 10.6
19:50 1018 30.06 847 25.01 5.2 41.3 29 -11.3 11.7
19:55 1018 30.06 847 25.01 5.1 41.1 29 -11.4 11.5
20:00 1018 30.06 847 25.01 4.9 40.8 29 -11.9 10.6
20:05 1018 30.06 847 25.01 4.8 40.6 30 -11.6 11.2
20:10 1018 30.06 847 25.01 4.7 40.5 30 -11.7 11
20:15 1018 30.06 847 25.01 4.7 40.4 30 -11.7 11
20:20 1018 30.06 847 25.01 4.6 40.3 30 -11.4 11.5
20:25 1018 30.06 847 25.01 4.5 40.1 31 -11.2 11.9
20:30 1018 30.06 847 25.01 4.3 39.8 32 -11.1 12
20:35 1018 30.06 847 25.01 4.3 39.7 32 -11.1 12.1
20:40 1018 30.06 848 25.04 4.2 39.6 34 -10.1 13.8
20:45 1018 30.06 848 25.04 4 39.1 35 -10.1 13.7
20:50 1018 30.06 848 25.04 3.9 39.1 34 -10.6 12.9
20:55 1018 30.06 848 25.04 3.8 38.8 41 -8.4 16.8
21:00 1018 30.06 848 25.04 2.9 37.3 45 -7.8 18
21:05 1019 30.09 848 25.04 2.8 37 44 -8.4 17
21:10 1019 30.09 848 25.04 2.4 36.4 52 -6.6 20.2
21:15 1019 30.09 848 25.04 2 35.6 53 -6.5 20.2
21:20 1019 30.09 848 25.04 1.9 35.4 53 -6.7 20
21:25 1019 30.09 848 25.04 1.7 35 54 -6.7 19.9
21:30 1019 30.09 848 25.04 1.4 34.5 54 -7 19.4
21:35 1019 30.09 848 25.04 1.6 34.8 53 -7.1 19.2
21:40 1019 30.09 848 25.04 1.7 35.1 52 -7.1 19.2
21:45 1019 30.09 848 25.04 1.6 34.9 53 -6.9 19.6
21:50 1019 30.09 848 25.04 1.6 34.8 54 -6.8 19.7
21:55 1019 30.09 848 25.04 1.5 34.7 55 -6.5 20.4
22:00 1019 30.09 848 25.04 1.4 34.5 55 -6.5 20.2
22:05 1019 30.09 848 25.04 1.3 34.3 56 -6.5 20.3
22:10 1019 30.09 848 25.04 1 33.7 58 -6.3 20.6
22:15 1019 30.09 848 25.04 0.6 33.2 60 -6.3 20.7
22:20 1019 30.09 848 25.04 0.7 33.2 60 -6.1 21
22:25 1019 30.09 848 25.04 0.6 33.1 59 -6.4 20.5
22:30 1019 30.09 848 25.04 0.8 33.4 58 -6.5 20.3
22:35 1019 30.09 848 25.04 0.8 33.5 59 -6.3 20.7
22:40 1019 30.09 848 25.04 0.7 33.2 59 -6.5 20.4
22:45 1019 30.09 848 25.04 0.6 33 59 -6.4 20.4
22:50 1019 30.09 848 25.04 0.4 32.6 61 -6.4 20.5
22:55 1019 30.09 848 25.04 0.3 32.5 60 -6.5 20.3
23:00 1019 30.09 848 25.04 0.3 32.5 60 -6.5 20.2
23:05 1019 30.09 848 25.04 0.1 32.2 61 -6.5 20.4
23:10 1019 30.09 848 25.04 -0.3 31.4 63 -6.5 20.4
23:15 1019 30.09 848 25.04 -0.4 31.3 63 -6.7 20
23:20 1019 30.09 848 25.04 -0.2 31.6 62 -6.6 20.1
23:25 1019 30.09 848 25.04 -0.3 31.5 63 -6.6 20.1
23:30 1019 30.09 849 25.07 -0.5 31.2 65 -6.3 20.7
23:35 1019 30.09 849 25.07 -0.8 30.6 66 -6.4 20.5
23:40 1019 30.09 849 25.07 -0.9 30.3 66 -6.5 20.4
23:45 1019 30.09 849 25.07 -1 30.2 66 -6.5 20.3
23:50 1019 30.09 849 25.07 -1.1 30.1 65 -6.8 19.7
23:55 1019 30.09 849 25.07 -0.9 30.3 62 -7.4 18.7
24:00 1019 30.09 849 25.07 -1 30.2 62 -7.3 18.8